Time;durP1;ratioP1;P1;durP2;ratioP2;P2;SDS_P1;SDS_P2;PMS_P1;PMS_P2;Temp;Humidity;BMP_temperature;BMP_pressure;BME280_temperature;BME280_humidity;BME280_pressure;Samples;Min_cycle;Max_cycle;Signal;HPM_P1;HPM_P2
2021/05/08 00:02:24;;;;;;;2.60;2.40;;;;;;;6.51;61.99;99760.75;5009978;28;20226;-81
2021/05/08 00:04:56;;;;;;;3.10;2.40;;;;;;;6.60;60.28;99759.63;5044637;28;20230;-82
2021/05/08 00:07:23;;;;;;;2.60;2.40;;;;;;;6.54;60.75;99765.69;5044474;28;20237;-81
2021/05/08 00:09:53;;;;;;;2.60;2.40;;;;;;;6.54;60.60;99766.53;5029922;28;20202;-82
2021/05/08 00:12:22;;;;;;;2.50;2.30;;;;;;;6.47;61.19;99762.16;5045269;28;20636;-81
2021/05/08 00:14:51;;;;;;;2.70;2.47;;;;;;;6.32;62.24;99772.84;5043990;28;20222;-80
2021/05/08 00:17:20;;;;;;;3.47;2.80;;;;;;;6.30;62.66;99782.84;5043083;28;20222;-81
2021/05/08 00:19:48;;;;;;;2.87;2.43;;;;;;;6.28;62.61;99779.56;5042530;28;20234;-81
2021/05/08 00:22:16;;;;;;;2.63;2.43;;;;;;;6.28;62.76;99784.06;5043514;28;20253;-81
2021/05/08 00:24:42;;;;;;;2.93;2.57;;;;;;;6.24;62.60;99785.47;5044437;28;20381;-81
2021/05/08 00:27:10;;;;;;;3.17;2.60;;;;;;;6.22;63.42;99785.63;5041910;28;20233;-81
2021/05/08 00:29:37;;;;;;;2.80;2.47;;;;;;;6.12;63.34;99774.47;5045080;28;20233;-81
2021/05/08 00:32:09;;;;;;;2.80;2.60;;;;;;;6.04;63.81;99788.72;5046686;28;20245;-81
2021/05/08 00:34:36;;;;;;;3.93;2.77;;;;;;;6.04;64.31;99794.03;5045980;28;20613;-81
2021/05/08 00:37:04;;;;;;;2.87;2.60;;;;;;;6.00;64.12;99794.59;5045229;28;20229;-81
2021/05/08 00:39:30;;;;;;;3.20;2.90;;;;;;;6.02;64.68;99788.06;5031026;28;20229;-82
2021/05/08 00:42:00;;;;;;;3.23;2.93;;;;;;;5.96;64.44;99802.13;5048039;28;20229;-82
2021/05/08 00:44:37;;;;;;;3.87;2.90;;;;;;;5.91;65.05;99795.69;5046737;28;20221;-81
2021/05/08 00:47:04;;;;;;;3.00;2.70;;;;;;;5.81;65.29;99797.78;5031685;28;20230;-82
2021/05/08 00:49:35;;;;;;;3.67;2.97;;;;;;;5.87;64.01;99795.25;5024917;28;20930;-81
2021/05/08 00:52:07;;;;;;;3.20;2.80;;;;;;;5.92;64.13;99819.47;5035980;28;20206;-80
2021/05/08 00:54:34;;;;;;;2.70;2.50;;;;;;;5.73;64.57;99799.56;5049243;28;20232;-81
2021/05/08 00:57:02;;;;;;;3.43;2.87;;;;;;;5.74;64.97;99805.66;5032372;28;20241;-81
2021/05/08 00:59:33;;;;;;;2.90;2.70;;;;;;;5.76;65.19;99814.28;5033422;28;20218;-82
2021/05/08 01:02:07;;;;;;;3.20;2.90;;;;;;;5.65;65.08;99812.09;5048550;28;20225;-80
2021/05/08 01:04:35;;;;;;;3.40;3.00;;;;;;;5.55;65.60;99806.25;5042172;28;20218;-82
2021/05/08 01:07:05;;;;;;;3.43;3.13;;;;;;;5.49;66.57;99829.06;4996275;28;20646;-81
2021/05/08 01:09:38;;;;;;;3.53;2.80;;;;;;;5.46;66.69;99834.72;4996984;28;20226;-81
2021/05/08 01:12:07;;;;;;;4.90;3.07;;;;;;;5.42;67.10;99841.41;5029882;28;20225;-82
2021/05/08 01:14:39;;;;;;;3.87;3.20;;;;;;;5.31;67.22;99840.03;5045070;28;20748;-82
2021/05/08 01:17:08;;;;;;;3.80;3.20;;;;;;;5.21;67.88;99828.00;5046581;28;20281;-81
2021/05/08 01:19:39;;;;;;;3.30;3.00;;;;;;;5.06;68.09;99825.31;5047163;28;20229;-80
2021/05/08 01:22:06;;;;;;;3.60;3.23;;;;;;;5.12;68.12;99839.69;5028016;28;20224;-81
2021/05/08 01:24:36;;;;;;;3.57;3.27;;;;;;;5.15;68.47;99828.72;5030596;28;20214;-80
2021/05/08 01:27:05;;;;;;;4.47;3.70;;;;;;;5.16;68.22;99830.38;5047598;28;20202;-81
2021/05/08 01:29:35;;;;;;;3.63;3.33;;;;;;;5.20;68.40;99836.97;5016041;28;20230;-81
2021/05/08 01:32:10;;;;;;;3.73;3.43;;;;;;;5.13;68.81;99842.16;5046555;28;20604;-81
2021/05/08 01:34:43;;;;;;;3.87;3.47;;;;;;;5.02;68.94;99831.97;5046537;28;20240;-81
2021/05/08 01:37:10;;;;;;;6.00;3.47;;;;;;;5.08;68.61;99849.88;5049193;28;20210;-81
2021/05/08 01:39:36;;;;;;;4.23;3.77;;;;;;;4.98;68.77;99835.19;5014626;28;20190;-81
2021/05/08 01:42:07;;;;;;;3.87;3.50;;;;;;;4.86;68.90;99838.25;5047473;28;20210;-80
2021/05/08 01:44:36;;;;;;;3.97;3.53;;;;;;;5.11;68.77;99840.69;5046918;28;20249;-80
2021/05/08 01:47:03;;;;;;;3.80;3.50;;;;;;;4.99;68.66;99839.50;5048819;28;20230;-80
2021/05/08 01:49:33;;;;;;;3.80;3.50;;;;;;;4.89;68.86;99845.03;4991692;28;20226;-80
2021/05/08 01:52:01;;;;;;;4.20;3.40;;;;;;;4.80;69.15;99841.63;5009639;28;20251;-81
2021/05/08 01:54:29;;;;;;;3.87;3.50;;;;;;;4.80;68.87;99844.28;5009340;28;20229;-80
2021/05/08 01:56:58;;;;;;;3.50;3.20;;;;;;;4.66;69.72;99849.53;5008976;28;20231;-80
2021/05/08 01:59:29;;;;;;;3.70;3.40;;;;;;;4.63;69.52;99849.84;5043515;28;20234;-81
2021/05/08 02:02:04;;;;;;;3.63;3.33;;;;;;;4.57;69.59;99861.19;5030464;28;20214;-81
2021/05/08 02:04:32;;;;;;;4.20;3.77;;;;;;;4.52;69.86;99861.72;5049972;28;20248;-80
2021/05/08 02:07:00;;;;;;;3.70;3.40;;;;;;;4.43;70.35;99868.06;5013054;28;20248;-81
2021/05/08 02:09:26;;;;;;;3.43;3.13;;;;;;;4.28;70.55;99865.34;5028713;28;20178;-80
2021/05/08 02:11:58;;;;;;;3.93;3.27;;;;;;;4.21;71.13;99859.06;5027200;28;20236;-80
2021/05/08 02:14:26;;;;;;;4.13;3.07;;;;;;;4.15;71.36;99859.75;5047203;28;20229;-80
2021/05/08 02:16:52;;;;;;;3.83;3.40;;;;;;;4.04;71.52;99859.31;5046793;28;20288;-80
2021/05/08 02:19:26;;;;;;;3.70;3.27;;;;;;;3.93;72.15;99853.38;5082234;23;20240;-81
2021/05/08 02:21:55;;;;;;;4.30;3.20;;;;;;;3.92;72.37;99861.47;5078226;23;20240;-81
2021/05/08 02:24:28;;;;;;;3.90;3.60;;;;;;;3.90;73.06;99868.81;5088706;28;20224;-80
2021/05/08 02:26:55;;;;;;;4.93;3.50;;;;;;;3.70;73.00;99848.97;5069368;28;20292;-80
2021/05/08 02:29:33;;;;;;;3.73;3.27;;;;;;;3.69;73.51;99865.88;5073303;23;20236;-80
2021/05/08 02:32:00;;;;;;;3.60;3.30;;;;;;;3.69;73.99;99882.59;5048248;28;20598;-81
2021/05/08 02:34:31;;;;;;;3.63;3.30;;;;;;;3.62;74.09;99884.28;5063522;28;20194;-81
2021/05/08 02:37:01;;;;;;;3.77;3.07;;;;;;;3.56;74.19;99884.94;5071524;28;20229;-80
2021/05/08 02:39:30;;;;;;;3.60;3.30;;;;;;;3.51;74.33;99880.16;5073170;22;20202;-81
2021/05/08 02:41:58;;;;;;;4.17;3.40;;;;;;;3.47;75.06;99881.50;5060397;22;20221;-80
2021/05/08 02:44:27;;;;;;;4.20;3.10;;;;;;;3.40;75.06;99872.56;5073346;28;20278;-80
2021/05/08 02:46:54;;;;;;;3.73;3.30;;;;;;;3.33;75.60;99879.50;5102739;22;20271;-80
2021/05/08 02:49:22;;;;;;;3.70;3.30;;;;;;;3.27;75.38;99868.75;5050293;28;20233;-80
2021/05/08 02:51:51;;;;;;;3.57;3.27;;;;;;;3.22;75.75;99869.25;5066089;28;20222;-81
2021/05/08 02:54:23;;;;;;;3.40;3.10;;;;;;;3.22;75.76;99879.03;5052072;28;20233;-81
2021/05/08 02:56:55;;;;;;;3.90;3.40;;;;;;;3.12;75.91;99878.38;5091595;22;20221;-81
2021/05/08 02:59:22;;;;;;;3.57;3.23;;;;;;;3.10;76.15;99889.13;5072947;28;20304;-81
2021/05/08 03:01:54;;;;;;;3.70;3.40;;;;;;;3.10;75.75;99897.91;5102183;22;20248;-81
2021/05/08 03:04:21;;;;;;;3.30;2.97;;;;;;;3.08;76.06;99899.03;5048741;28;20253;-80
2021/05/08 03:06:50;;;;;;;3.83;3.50;;;;;;;3.03;76.27;99890.78;5071487;28;20186;-82
2021/05/08 03:09:18;;;;;;;4.20;3.57;;;;;;;2.96;76.19;99877.38;5071900;28;20229;-81
2021/05/08 03:11:47;;;;;;;3.73;3.43;;;;;;;3.01;75.73;99888.31;5070677;28;20679;-82
2021/05/08 03:14:20;;;;;;;4.43;3.50;;;;;;;3.07;76.36;99900.06;5066624;28;20225;-81
2021/05/08 03:17:09;;;;;;;5.30;3.57;;;;;;;3.13;76.14;99895.94;5069009;28;20185;-81
2021/05/08 03:19:48;;;;;;;4.23;3.80;;;;;;;3.09;75.70;99898.06;5069786;28;20296;-81
2021/05/08 03:22:17;;;;;;;3.87;3.40;;;;;;;3.04;76.32;99890.59;5055191;23;20225;-80
2021/05/08 03:24:50;;;;;;;3.87;3.47;;;;;;;3.08;75.95;99883.16;5049759;28;20230;-81
2021/05/08 03:27:19;;;;;;;3.60;3.30;;;;;;;3.16;75.73;99893.78;5078946;22;20231;-81
2021/05/08 03:29:51;;;;;;;5.27;3.73;;;;;;;3.16;76.09;99904.34;5069538;22;20212;-80
2021/05/08 03:32:20;;;;;;;3.43;3.13;;;;;;;3.09;75.91;99896.25;5052712;22;20235;-81
2021/05/08 03:34:56;;;;;;;3.37;3.10;;;;;;;3.08;76.57;99896.38;5018630;28;20301;-82
2021/05/08 03:37:31;;;;;;;4.10;3.37;;;;;;;3.26;75.88;99899.72;5050421;28;20190;-81
2021/05/08 03:39:59;;;;;;;4.97;3.50;;;;;;;3.22;76.03;99906.31;5077463;22;20296;-80
2021/05/08 03:42:35;;;;;;;3.90;3.50;;;;;;;3.23;75.70;99901.84;5090344;28;20217;-82
2021/05/08 03:45:08;;;;;;;4.00;3.60;;;;;;;3.29;75.49;99914.44;5057642;28;20224;-80
2021/05/08 03:47:36;;;;;;;4.00;3.60;;;;;;;3.41;76.51;99907.81;5091790;28;20639;-81
2021/05/08 03:50:06;;;;;;;4.40;3.80;;;;;;;4.24;73.01;99919.72;5090784;28;20272;-80
2021/05/08 03:52:57;;;;;;;3.97;3.43;;;;;;;4.75;70.02;99901.56;5091750;28;20227;-80
2021/05/08 03:55:44;;;;;;;5.73;3.80;;;;;;;5.41;68.43;99913.34;5029890;28;20213;-81
2021/05/08 03:58:15;;;;;;;3.73;3.20;;;;;;;5.90;66.78;99911.88;5032658;28;20588;-80
2021/05/08 04:00:48;;;;;;;3.77;3.30;;;;;;;6.25;64.76;99914.81;5030529;28;20213;-81
2021/05/08 04:03:15;;;;;;;4.03;3.60;;;;;;;6.26;64.22;99905.81;5044966;28;20277;-80
2021/05/08 04:05:57;;;;;;;4.00;3.60;;;;;;;5.96;64.72;99889.88;5028736;28;20261;-81
2021/05/08 04:08:24;;;;;;;4.53;3.20;;;;;;;5.84;65.12;99904.59;5029164;28;20231;-80
2021/05/08 04:10:54;;;;;;;3.63;3.23;;;;;;;5.79;65.47;99922.94;5056069;22;20230;-81
2021/05/08 04:13:23;;;;;;;4.33;3.80;;;;;;;5.68;66.24;99918.91;5087786;28;20229;-81
2021/05/08 04:15:52;;;;;;;4.73;4.23;;;;;;;5.71;66.07;99921.19;5084981;23;20217;-81
2021/05/08 04:18:22;;;;;;;5.10;3.63;;;;;;;5.78;66.33;99933.75;5070760;28;20233;-81
2021/05/08 04:21:10;;;;;;;4.43;3.80;;;;;;;5.87;66.37;99930.88;5089285;28;20240;-81
2021/05/08 04:23:38;;;;;;;4.87;3.93;;;;;;;5.92;65.65;99922.34;5087628;28;20252;-80
2021/05/08 04:26:07;;;;;;;5.67;4.23;;;;;;;6.12;65.23;99939.41;5090929;23;20516;-81
2021/05/08 04:28:35;;;;;;;4.73;4.20;;;;;;;6.18;65.10;99931.53;5087477;22;20283;-81
2021/05/08 04:31:01;;;;;;;4.73;4.23;;;;;;;6.36;64.94;99936.47;5064259;28;20236;-81
2021/05/08 04:33:30;;;;;;;4.60;4.00;;;;;;;6.51;64.84;99939.94;5062959;28;20267;-81
2021/05/08 04:35:57;;;;;;;5.70;4.17;;;;;;;6.70;64.29;99953.66;5054629;28;20735;-81
2021/05/08 04:38:25;;;;;;;4.30;3.90;;;;;;;6.85;63.60;99947.31;5042666;28;20228;-81
2021/05/08 04:40:56;;;;;;;3.97;3.67;;;;;;;6.97;62.85;99945.78;5051824;28;20537;-81
2021/05/08 04:43:25;;;;;;;4.77;3.90;;;;;;;7.15;62.50;99945.34;5064037;28;20244;-82
2021/05/08 04:45:53;;;;;;;5.10;3.87;;;;;;;7.25;62.34;99937.06;5063008;28;20720;-82
2021/05/08 04:48:25;;;;;;;5.20;3.77;;;;;;;7.43;61.33;99953.41;5045411;28;20225;-81
2021/05/08 04:50:52;;;;;;;5.10;3.50;;;;;;;7.50;60.84;99947.16;5027404;28;20221;-82
2021/05/08 04:53:21;;;;;;;4.60;4.20;;;;;;;7.72;60.17;99941.78;5048515;28;20617;-85
2021/05/08 04:55:51;;;;;;;5.10;3.63;;;;;;;7.79;60.01;99937.31;5065204;28;20282;-84
2021/05/08 04:58:19;;;;;;;6.73;3.90;;;;;;;8.01;59.18;99946.91;5065553;28;20581;-82
2021/05/08 05:00:45;;;;;;;4.70;3.77;;;;;;;8.15;58.48;99945.97;5046138;28;20228;-80
2021/05/08 05:03:12;;;;;;;4.87;3.87;;;;;;;8.23;58.19;99953.00;5061617;28;20217;-81
2021/05/08 05:05:39;;;;;;;4.70;3.60;;;;;;;8.34;58.42;99939.97;5059531;28;20222;-81
2021/05/08 05:08:05;;;;;;;4.13;3.73;;;;;;;8.50;57.69;99940.63;5042957;28;20253;-82
2021/05/08 05:10:31;;;;;;;5.43;4.03;;;;;;;8.57;57.05;99926.31;5028507;28;20644;-81
2021/05/08 05:13:00;;;;;;;4.53;4.13;;;;;;;8.81;57.17;99949.81;5061921;28;20250;-82
2021/05/08 05:15:37;;;;;;;4.97;3.90;;;;;;;8.86;56.27;99941.19;5048172;28;20287;-81
2021/05/08 05:18:04;;;;;;;4.87;4.00;;;;;;;9.06;55.89;99957.28;5067518;28;20232;-82
2021/05/08 05:20:32;;;;;;;4.60;4.20;;;;;;;9.13;55.95;99939.41;5067862;28;20225;-82
2021/05/08 05:23:02;;;;;;;4.50;4.10;;;;;;;9.20;55.87;99948.25;5047074;28;20729;-81
2021/05/08 05:25:28;;;;;;;5.03;4.53;;;;;;;9.37;55.36;99951.38;5046589;28;20248;-82
2021/05/08 05:27:55;;;;;;;4.60;4.20;;;;;;;9.44;55.26;99957.56;5064324;28;20245;-83
2021/05/08 05:30:28;;;;;;;4.63;4.20;;;;;;;9.48;54.69;99950.75;5066584;28;21178;-81
2021/05/08 05:32:55;;;;;;;5.37;3.97;;;;;;;9.65;53.56;99957.38;5050413;28;20229;-81
2021/05/08 05:35:22;;;;;;;4.10;3.70;;;;;;;9.68;54.02;99949.75;5050329;28;20279;-82
2021/05/08 05:37:48;;;;;;;5.13;4.30;;;;;;;9.82;53.41;99960.44;5050351;28;20221;-83
2021/05/08 05:40:18;;;;;;;5.37;4.20;;;;;;;9.82;53.40;99958.59;5066615;28;20295;-82
2021/05/08 05:42:45;;;;;;;4.30;3.90;;;;;;;10.00;52.86;99960.63;5049696;28;20365;-82
2021/05/08 05:45:16;;;;;;;4.20;3.80;;;;;;;10.11;52.50;99952.81;5066627;28;20233;-83
2021/05/08 05:47:45;;;;;;;4.47;4.07;;;;;;;10.20;52.00;99964.16;5040813;23;20222;-83
2021/05/08 05:50:12;;;;;;;3.90;3.60;;;;;;;10.21;52.19;99960.44;5029332;28;20229;-81
2021/05/08 05:52:39;;;;;;;5.47;3.70;;;;;;;10.20;51.68;99953.44;5047582;28;20251;-81
2021/05/08 05:55:11;;;;;;;3.87;3.47;;;;;;;10.38;51.71;99958.97;5047744;28;20236;-81
2021/05/08 05:57:38;;;;;;;4.40;4.00;;;;;;;10.44;51.45;99968.84;5047807;28;20296;-83
2021/05/08 06:00:19;;;;;;;4.87;3.73;;;;;;;10.58;50.87;99966.94;5048947;28;20226;-82
2021/05/08 06:02:47;;;;;;;4.43;3.93;;;;;;;10.57;50.22;99946.53;5013644;28;20226;-82
2021/05/08 06:05:15;;;;;;;4.30;3.40;;;;;;;10.75;50.27;99961.91;5028022;28;20182;-82
2021/05/08 06:07:41;;;;;;;5.73;4.13;;;;;;;10.76;50.05;99953.69;5047536;28;20226;-82
2021/05/08 06:10:11;;;;;;;3.77;3.47;;;;;;;10.80;49.77;99951.38;5046068;28;20532;-81
2021/05/08 06:12:38;;;;;;;3.53;3.23;;;;;;;10.86;49.20;99958.59;5045134;28;20630;-81
2021/05/08 06:15:07;;;;;;;3.17;2.87;;;;;;;11.01;47.14;99962.59;5047752;28;20225;-81
2021/05/08 06:17:34;;;;;;;3.03;2.73;;;;;;;10.99;45.75;99935.22;5047704;28;20226;-81
2021/05/08 06:20:05;;;;;;;3.37;2.70;;;;;;;11.11;45.51;99958.63;5046621;28;20233;-81
2021/05/08 06:22:40;;;;;;;2.53;2.27;;;;;;;11.27;45.12;99956.28;5045504;28;20308;-81
2021/05/08 06:25:07;;;;;;;2.63;2.43;;;;;;;11.37;43.93;99947.75;5029211;28;20233;-82
2021/05/08 06:27:40;;;;;;;2.23;2.00;;;;;;;11.44;41.53;99951.22;5026388;28;20218;-81
2021/05/08 06:30:10;;;;;;;2.23;1.90;;;;;;;11.43;41.13;99938.84;5045844;28;20210;-82
2021/05/08 06:32:39;;;;;;;2.20;2.00;;;;;;;11.47;41.23;99940.88;5046865;28;20241;-83
2021/05/08 06:35:05;;;;;;;1.90;1.80;;;;;;;11.49;40.88;99940.66;5046917;28;20293;-81
2021/05/08 06:37:33;;;;;;;2.47;2.27;;;;;;;11.46;41.82;99951.81;5029935;28;20214;-83
2021/05/08 06:40:01;;;;;;;2.20;1.97;;;;;;;11.36;42.73;99955.00;5029038;28;20230;-84
2021/05/08 06:42:28;;;;;;;3.03;2.20;;;;;;;11.44;41.92;99948.53;5046584;28;20225;-82
2021/05/08 06:44:54;;;;;;;2.10;1.90;;;;;;;11.57;41.41;99956.47;5046182;28;20180;-81
2021/05/08 06:47:21;;;;;;;2.93;2.07;;;;;;;11.56;42.51;99941.44;5042804;28;20662;-81
2021/05/08 06:50:21;;;;;;;2.40;2.20;;;;;;;11.68;41.53;99958.47;5050244;22;20234;-79
2021/05/08 06:52:56;;;;;;;2.77;2.37;;;;;;;11.68;41.52;99950.41;4979281;23;20224;-81
2021/05/08 06:55:24;;;;;;;2.60;2.40;;;;;;;11.68;41.85;99953.09;5068594;28;20293;-81
2021/05/08 06:57:53;;;;;;;3.30;2.43;;;;;;;11.76;41.77;99946.66;5069908;28;20236;-81
2021/05/08 07:00:19;;;;;;;2.60;2.40;;;;;;;11.65;42.07;99937.44;5087476;28;20726;-86
2021/05/08 07:02:46;;;;;;;3.03;2.63;;;;;;;11.80;42.10;99947.88;5084692;28;20235;-81
2021/05/08 07:05:12;;;;;;;3.20;2.20;;;;;;;11.90;42.34;99953.56;5069958;28;20220;-81
2021/05/08 07:07:42;;;;;;;2.53;2.20;;;;;;;12.03;42.78;99940.03;5069374;28;20240;-79
2021/05/08 07:10:10;;;;;;;3.13;2.70;;;;;;;12.20;41.89;99954.50;5068423;28;20259;-82
2021/05/08 07:12:39;;;;;;;2.87;2.50;;;;;;;12.31;41.67;99956.47;5088982;28;20227;-77
2021/05/08 07:15:22;;;;;;;2.83;2.37;;;;;;;12.18;39.78;99956.59;5085317;22;20242;-78
2021/05/08 07:18:01;;;;;;;3.47;2.20;;;;;;;12.35;41.60;99957.66;5037126;23;20234;-77
2021/05/08 07:20:30;;;;;;;2.30;2.10;;;;;;;12.23;39.79;99951.38;5074758;23;20636;-77
2021/05/08 07:23:45;;;;;;;3.03;2.10;;;;;;;12.47;40.21;99964.97;5095522;22;20208;-77
2021/05/08 07:27:13;;;;;;;3.13;2.50;;;;;;;12.46;37.62;99953.41;5045698;28;20225;-78
2021/05/08 07:29:43;;;;;;;2.73;2.00;;;;;;;12.51;37.53;99945.50;5062621;22;20248;-78
2021/05/08 07:32:45;;;;;;;2.67;2.37;;;;;;;12.36;37.05;99953.13;5081639;28;20197;-78
2021/05/08 07:35:26;;;;;;;2.30;2.10;;;;;;;12.43;38.15;99936.91;5071967;23;20218;-80
2021/05/08 07:38:26;;;;;;;2.53;2.33;;;;;;;12.65;37.78;99949.66;5085610;23;20266;-77
2021/05/08 07:41:11;;;;;;;2.20;2.00;;;;;;;12.48;38.69;99958.56;5097549;28;20200;-81
2021/05/08 07:43:41;;;;;;;2.47;2.27;;;;;;;12.71;38.40;99945.25;5095664;28;20217;-79
2021/05/08 07:46:09;;;;;;;2.70;2.20;;;;;;;12.83;38.13;99958.78;5077442;28;20225;-79
2021/05/08 07:48:42;;;;;;;2.80;2.10;;;;;;;12.93;36.65;99949.09;5098139;28;20196;-82
2021/05/08 07:51:11;;;;;;;2.70;2.13;;;;;;;13.02;35.94;99950.44;5103808;28;20235;-80
2021/05/08 07:56:34;;;;;;;2.63;1.97;;;;;;;13.17;36.57;99944.69;5061175;28;20237;-79
2021/05/08 07:59:22;;;;;;;2.50;1.80;;;;;;;13.18;33.91;99957.91;5058785;28;20703;-81
2021/05/08 08:01:49;;;;;;;3.73;1.90;;;;;;;13.25;34.95;99947.03;5054646;28;20222;-80
2021/05/08 08:04:28;;;;;;;4.87;2.17;;;;;;;13.27;34.50;99961.09;5069664;23;20252;-78
2021/05/08 08:07:05;;;;;;;3.40;2.00;;;;;;;13.39;34.06;99953.88;5178873;22;20228;-78
2021/05/08 08:09:33;;;;;;;2.20;1.90;;;;;;;13.06;34.56;99959.72;5089726;23;20223;-77
2021/05/08 08:12:18;;;;;;;2.30;2.10;;;;;;;13.30;34.86;99941.00;5132613;22;20217;-78
2021/05/08 08:15:48;;;;;;;1.87;1.77;;;;;;;13.54;32.62;99948.88;5044013;23;20222;-78
2021/05/08 08:19:17;;;;;;;3.03;1.50;;;;;;;13.73;33.42;99951.47;5191141;22;20258;-80
2021/05/08 08:22:22;;;;;;;3.00;1.77;;;;;;;13.78;33.80;99941.66;5049755;23;20232;-78
2021/05/08 08:25:39;;;;;;;2.30;2.10;;;;;;;13.83;33.73;99935.56;5195627;22;20237;-78
2021/05/08 08:28:58;;;;;;;1.70;1.60;;;;;;;13.65;32.43;99945.41;5066067;28;20239;-78
2021/05/08 08:36:14;;;;;;;2.07;1.87;;;;;;;13.66;32.76;99938.97;5077767;22;20647;-78
2021/05/08 08:40:35;;;;;;;1.93;1.83;;;;;;;14.05;32.49;99920.47;5037520;23;20255;-78
2021/05/08 08:43:50;;;;;;;2.03;1.70;;;;;;;13.92;33.32;99926.91;5108585;23;20243;-78
2021/05/08 08:47:28;;;;;;;2.40;2.20;;;;;;;13.96;32.98;99941.56;5207805;22;20772;-78
2021/05/08 08:50:52;;;;;;;2.47;2.07;;;;;;;14.14;33.48;99945.19;5113865;22;20228;-78
2021/05/08 08:54:28;;;;;;;1.90;1.80;;;;;;;13.99;32.18;99916.03;5115681;22;20261;-78
2021/05/08 08:57:33;;;;;;;2.83;1.93;;;;;;;14.28;33.36;99914.22;5192612;22;20299;-78
2021/05/08 09:00:33;;;;;;;2.33;2.13;;;;;;;14.23;31.95;99935.69;5086816;23;20220;-78
2021/05/08 09:03:17;;;;;;;8.17;2.20;;;;;;;14.47;32.84;99937.31;5117617;22;20260;-78
2021/05/08 09:05:44;;;;;;;2.30;2.10;;;;;;;14.37;32.31;99921.75;5068820;23;20225;-78
2021/05/08 09:08:29;;;;;;;2.03;1.90;;;;;;;14.45;31.52;99920.59;5082759;23;20225;-78
2021/05/08 09:12:17;;;;;;;2.40;2.03;;;;;;;14.63;32.99;99917.72;5077866;28;20209;-78
2021/05/08 09:16:09;;;;;;;1.50;1.40;;;;;;;14.80;31.40;99904.28;5056295;28;20222;-78
2021/05/08 09:19:21;;;;;;;1.97;1.70;;;;;;;14.91;30.76;99911.53;5056960;28;20221;-78
2021/05/08 09:22:39;;;;;;;2.23;2.03;;;;;;;14.62;32.13;99920.66;5020863;28;20249;-78
2021/05/08 09:25:20;;;;;;;2.20;2.00;;;;;;;14.82;30.95;99902.19;5065346;28;20214;-78
2021/05/08 09:27:48;;;;;;;2.53;1.80;;;;;;;15.11;31.85;99916.50;5069559;28;20219;-78
2021/05/08 09:30:30;;;;;;;2.27;2.07;;;;;;;15.06;30.91;99911.00;5056183;28;20226;-83
2021/05/08 09:33:03;;;;;;;2.03;1.90;;;;;;;14.91;31.21;99904.25;5073145;28;20220;-78
2021/05/08 09:35:34;;;;;;;1.73;1.63;;;;;;;14.67;29.75;99891.09;5072526;28;20307;-77
2021/05/08 09:38:12;;;;;;;2.07;1.83;;;;;;;14.94;30.07;99901.06;5051253;28;20520;-83
2021/05/08 09:41:04;;;;;;;2.03;1.80;;;;;;;15.11;30.67;99884.94;5040602;28;20233;-80
2021/05/08 09:43:51;;;;;;;2.37;2.17;;;;;;;15.18;32.16;99900.94;5071238;22;20219;-78
2021/05/08 09:46:57;;;;;;;2.63;2.23;;;;;;;15.22;32.40;99900.22;5072688;28;20229;-78
2021/05/08 09:49:30;;;;;;;2.97;2.10;;;;;;;15.18;31.66;99903.66;5090357;22;20245;-80
2021/05/08 09:52:00;;;;;;;2.27;2.07;;;;;;;15.41;32.26;99884.63;5037181;28;20251;-84
2021/05/08 09:54:30;;;;;;;1.97;1.80;;;;;;;15.59;31.06;99873.59;5011077;28;20310;-83
2021/05/08 09:56:56;;;;;;;2.70;2.00;;;;;;;15.65;31.67;99871.81;5039754;28;20555;-87
2021/05/08 09:59:33;;;;;;;2.40;1.90;;;;;;;15.98;30.68;99885.28;5023445;28;20297;-86
2021/05/08 10:02:06;;;;;;;3.27;2.13;;;;;;;15.88;30.98;99882.41;5039327;28;20231;-85
2021/05/08 10:04:44;;;;;;;2.43;2.23;;;;;;;15.79;29.48;99873.91;5035820;28;20324;-82
2021/05/08 10:07:24;;;;;;;2.30;2.10;;;;;;;15.29;30.97;99882.00;5070977;28;20238;-78
2021/05/08 10:12:58;;;;;;;2.17;2.07;;;;;;;15.46;30.08;99873.09;5444260;22;20227;-79
2021/05/08 10:15:32;;;;;;;2.40;2.20;;;;;;;15.70;30.21;99847.56;5059114;28;20718;-87
2021/05/08 10:18:04;;;;;;;3.30;2.57;;;;;;;15.98;29.75;99846.63;5055999;28;20227;-87
2021/05/08 10:20:31;;;;;;;2.83;2.30;;;;;;;16.22;29.42;99853.44;5039628;28;20226;-86
2021/05/08 10:23:03;;;;;;;2.70;2.50;;;;;;;16.52;29.51;99845.69;5055725;28;20233;-86
2021/05/08 10:25:30;;;;;;;3.10;2.20;;;;;;;16.17;28.87;99832.56;5039317;28;20329;-79
2021/05/08 10:27:56;;;;;;;2.20;2.00;;;;;;;16.59;29.62;99840.13;5045125;28;20272;-83
2021/05/08 10:30:25;;;;;;;2.40;2.20;;;;;;;16.82;29.02;99847.13;5070834;28;20631;-84
2021/05/08 10:32:51;;;;;;;2.30;2.10;;;;;;;16.73;28.52;99839.47;5055718;28;20255;-78
2021/05/08 10:35:23;;;;;;;2.30;2.10;;;;;;;16.83;28.47;99840.66;5073388;28;20279;-79
2021/05/08 10:38:23;;;;;;;4.03;2.20;;;;;;;16.51;29.28;99827.84;5059025;28;20240;-82
2021/05/08 10:40:57;;;;;;;3.17;2.00;;;;;;;16.45;28.94;99836.97;5035874;28;20227;-83
2021/05/08 10:43:49;;;;;;;3.47;2.30;;;;;;;16.75;28.67;99814.06;5037868;28;20221;-79
2021/05/08 10:46:17;;;;;;;3.77;2.70;;;;;;;16.78;27.94;99824.34;5037294;28;20237;-80
2021/05/08 10:49:10;;;;;;;2.67;2.00;;;;;;;17.07;28.81;99836.56;5037940;28;20583;-79
2021/05/08 10:51:59;;;;;;;2.50;2.30;;;;;;;17.09;27.50;99828.97;5019123;28;20225;-79
2021/05/08 10:54:43;;;;;;;2.60;2.00;;;;;;;17.02;28.70;99828.38;5055006;28;20229;-79
2021/05/08 10:57:16;;;;;;;2.60;2.40;;;;;;;16.54;28.16;99824.63;5056022;28;20232;-80
2021/05/08 11:00:01;;;;;;;2.47;2.23;;;;;;;16.82;28.50;99825.47;5055094;28;20675;-81
2021/05/08 11:02:40;;;;;;;1.97;1.87;;;;;;;17.09;29.05;99823.56;5038379;28;20244;-81
2021/05/08 11:05:34;;;;;;;2.67;2.20;;;;;;;17.14;28.19;99819.03;5055940;28;20229;-79
2021/05/08 11:08:26;;;;;;;3.27;2.73;;;;;;;16.96;27.67;99810.47;5038292;28;20225;-78
2021/05/08 11:11:06;;;;;;;2.60;2.40;;;;;;;16.89;27.36;99810.66;5038277;28;20225;-79
2021/05/08 11:13:48;;;;;;;3.03;2.23;;;;;;;16.80;27.78;99806.78;5054195;28;20236;-79
2021/05/08 11:16:17;;;;;;;2.53;2.33;;;;;;;17.18;28.65;99820.13;5055203;28;20239;-81
2021/05/08 11:18:52;;;;;;;2.40;2.10;;;;;;;17.21;28.04;99794.44;5037882;28;20236;-82
2021/05/08 11:21:19;;;;;;;2.57;2.30;;;;;;;17.44;27.16;99802.22;5037876;28;20632;-82
2021/05/08 11:24:04;;;;;;;3.17;2.13;;;;;;;17.78;28.34;99807.31;5021435;28;20581;-79
2021/05/08 11:26:42;;;;;;;2.17;1.97;;;;;;;18.06;26.86;99789.88;5039339;28;20229;-79
2021/05/08 11:29:17;;;;;;;2.60;2.40;;;;;;;18.43;27.75;99795.94;5034638;28;20233;-79
2021/05/08 11:31:47;;;;;;;2.30;2.20;;;;;;;18.69;26.36;99794.16;5034344;28;20229;-81
2021/05/08 11:34:21;;;;;;;3.27;2.37;;;;;;;18.97;26.17;99795.56;5033792;28;20287;-78
2021/05/08 11:36:49;;;;;;;2.87;2.20;;;;;;;19.22;25.68;99796.34;5017755;28;20226;-81
2021/05/08 11:39:32;;;;;;;2.50;2.30;;;;;;;19.50;25.37;99789.59;5017877;28;20226;-78
2021/05/08 11:42:00;;;;;;;2.60;2.40;;;;;;;19.65;23.94;99788.75;5035850;28;20230;-78
2021/05/08 11:44:27;;;;;;;2.37;2.17;;;;;;;19.76;24.38;99788.44;5053695;28;20575;-79
2021/05/08 11:46:56;;;;;;;2.63;2.10;;;;;;;19.72;24.34;99792.81;5037452;28;20256;-79
2021/05/08 11:49:29;;;;;;;2.70;2.40;;;;;;;19.74;23.78;99787.09;5055034;28;20265;-78
2021/05/08 11:51:56;;;;;;;2.03;1.90;;;;;;;19.70;23.38;99783.28;5033870;28;20233;-83
2021/05/08 11:54:23;;;;;;;2.27;2.07;;;;;;;19.95;23.45;99787.84;5013447;28;20234;-80
2021/05/08 11:56:50;;;;;;;2.37;1.60;;;;;;;19.89;22.94;99780.78;5033828;28;20234;-78
2021/05/08 11:59:29;;;;;;;1.80;1.70;;;;;;;19.69;23.47;99778.97;5037077;28;20667;-79
2021/05/08 12:02:21;;;;;;;1.90;1.77;;;;;;;19.97;23.66;99781.03;5036657;28;20232;-84
2021/05/08 12:04:49;;;;;;;4.87;2.10;;;;;;;19.86;23.12;99774.03;5000996;28;20254;-84
2021/05/08 12:07:26;;;;;;;2.10;1.90;;;;;;;19.83;22.74;99771.03;5034975;28;20230;-83
2021/05/08 12:10:17;;;;;;;2.07;1.80;;;;;;;19.64;23.23;99758.03;5033775;28;20233;-78
2021/05/08 12:12:54;;;;;;;2.73;1.80;;;;;;;19.67;23.74;99760.22;5019852;28;20245;-79
2021/05/08 12:15:56;;;;;;;3.87;2.17;;;;;;;19.89;21.92;99754.41;5033896;28;20229;-79
2021/05/08 12:18:23;;;;;;;1.50;1.40;;;;;;;20.05;22.05;99736.16;5001640;28;20241;-78
2021/05/08 12:20:50;;;;;;;1.50;1.40;;;;;;;20.30;22.63;99752.34;5017257;28;20680;-78
2021/05/08 12:23:22;;;;;;;2.00;1.50;;;;;;;20.21;22.26;99741.22;4995131;28;20529;-78
2021/05/08 12:26:14;;;;;;;3.17;1.50;;;;;;;20.48;22.30;99740.03;4979557;28;20234;-78
2021/05/08 12:28:43;;;;;;;1.53;1.40;;;;;;;20.57;22.06;99738.34;5004912;28;20251;-79